Terminal Aerodrome Forecast
Issued by NWS

Home | Current Version | Previous Version | Text Only | Print | Product List | Glossary On
Versions: 1 2 3 4 5 6 7 8 9 10 11 12 13 14 15 16 17 18 19 20 21 22
000
FTUS45 KMSO 220537
TAFSMN
TAF
KSMN 220537Z 2206/2306 35005KT P6SM VCSH OVC070
     FM220700 35010KT P6SM -RA OVC030
     FM221000 02010KT 6SM -RA OVC025
     FM221800 35008G15KT P6SM -SHRA OVC040
     FM230000 01006KT P6SM VCSH OVC050
      AMD LTD TO CLD VIS AND WIND=

USA.gov is the U.S. government's official web portal to all federal, state and local government web resources and services.